createdAt,value
2022-08-29T00:01:56.908Z,22.10
2022-08-29T00:04:26.404Z,22.06
2022-08-29T00:06:57.198Z,22.04
2022-08-29T00:09:26.678Z,22.11
2022-08-29T00:11:56.136Z,21.98
2022-08-29T00:14:26.111Z,21.88
2022-08-29T00:16:58.179Z,21.95
2022-08-29T00:19:27.688Z,21.90
2022-08-29T00:21:57.146Z,21.85
2022-08-29T00:24:26.683Z,21.75
2022-08-29T00:26:56.119Z,21.81
2022-08-29T00:29:25.595Z,21.86
2022-08-29T00:31:55.121Z,21.81
2022-08-29T00:34:27.182Z,21.69
2022-08-29T00:36:56.693Z,21.65
2022-08-29T00:39:27.376Z,21.54
2022-08-29T00:41:56.839Z,21.58
2022-08-29T00:44:26.289Z,21.56
2022-08-29T00:46:57.088Z,21.44
2022-08-29T00:49:35.252Z,21.45
2022-08-29T00:52:08.895Z,21.44
2022-08-29T00:54:38.957Z,21.34
2022-08-29T00:57:08.450Z,21.38
2022-08-29T00:59:39.351Z,21.36
2022-08-29T01:02:11.082Z,21.33
2022-08-29T01:04:43.249Z,21.28
2022-08-29T01:07:12.908Z,21.33
2022-08-29T01:09:43.577Z,21.34
2022-08-29T01:12:16.274Z,21.34
2022-08-29T01:14:48.606Z,21.23
2022-08-29T01:17:20.980Z,21.26
2022-08-29T01:19:56.057Z,21.25
2022-08-29T01:22:34.980Z,21.19
2022-08-29T01:25:08.777Z,21.11
2022-08-29T01:27:39.824Z,21.10
2022-08-29T01:30:10.922Z,21.11
2022-08-29T01:32:40.401Z,21.01
2022-08-29T01:35:11.300Z,21.10
2022-08-29T01:37:41.509Z,21.10
2022-08-29T01:40:14.673Z,21.09
2022-08-29T01:42:44.428Z,21.05
2022-08-29T01:45:14.187Z,21.01
2022-08-29T01:47:43.655Z,20.95
2022-08-29T01:50:17.900Z,20.90
2022-08-29T01:52:48.079Z,20.84
2022-08-29T01:55:20.141Z,20.90
2022-08-29T01:57:49.798Z,20.91
2022-08-29T02:00:20.990Z,20.90
2022-08-29T02:02:50.453Z,20.88
2022-08-29T02:05:23.414Z,20.91
2022-08-29T02:07:52.901Z,20.84
2022-08-29T02:10:24.994Z,20.79
2022-08-29T02:12:55.073Z,20.71
2022-08-29T02:15:24.710Z,20.80
2022-08-29T02:17:54.150Z,20.81
2022-08-29T02:20:23.600Z,20.84
2022-08-29T02:22:53.086Z,20.87
2022-08-29T02:25:37.698Z,20.94
2022-08-29T02:28:07.179Z,20.84
2022-08-29T02:30:36.763Z,20.72
2022-08-29T02:33:06.423Z,20.67
2022-08-29T02:35:38.870Z,20.78
2022-08-29T02:38:12.321Z,20.69
2022-08-29T02:40:44.561Z,20.60
2022-08-29T02:43:15.493Z,20.65
2022-08-29T02:45:45.201Z,20.62
2022-08-29T02:48:15.161Z,20.47
2022-08-29T02:50:45.334Z,20.55
2022-08-29T02:53:16.912Z,20.27
2022-08-29T02:55:48.930Z,20.29
2022-08-29T02:58:18.442Z,20.34
2022-08-29T03:00:47.920Z,20.29
2022-08-29T03:03:17.421Z,20.36
2022-08-29T03:05:47.870Z,20.38
2022-08-29T03:08:18.917Z,19.79
2022-08-29T03:10:50.759Z,20.06
2022-08-29T03:13:20.298Z,20.09
2022-08-29T03:15:49.973Z,19.98
2022-08-29T03:18:19.920Z,19.94
2022-08-29T03:20:51.663Z,19.76
2022-08-29T03:23:21.262Z,20.09
2022-08-29T03:25:53.472Z,19.91
2022-08-29T03:28:23.104Z,19.83
2022-08-29T03:30:52.644Z,19.71
2022-08-29T03:33:22.140Z,19.67
2022-08-29T03:35:51.601Z,19.85
2022-08-29T03:38:22.774Z,20.04
2022-08-29T03:40:58.224Z,20.05
2022-08-29T03:43:27.878Z,20.07
2022-08-29T03:45:57.345Z,20.10
2022-08-29T03:48:26.791Z,20.11
2022-08-29T03:50:56.640Z,20.12
2022-08-29T03:53:26.632Z,20.17
2022-08-29T03:55:59.189Z,20.25
2022-08-29T03:58:28.628Z,20.27
2022-08-29T04:00:58.941Z,20.38
2022-08-29T04:03:31.205Z,20.36
2022-08-29T04:06:01.344Z,20.28
2022-08-29T04:08:30.782Z,20.27
2022-08-29T04:11:04.093Z,20.38
2022-08-29T04:13:33.567Z,20.34
2022-08-29T04:16:03.026Z,20.25
2022-08-29T04:18:32.491Z,20.18
2022-08-29T04:21:03.978Z,20.14
2022-08-29T04:23:33.458Z,20.06
2022-08-29T04:26:27.171Z,20.00
2022-08-29T04:28:54.931Z,19.98
2022-08-29T04:31:24.439Z,19.99
2022-08-29T04:33:54.007Z,20.07
2022-08-29T04:36:23.449Z,19.93
2022-08-29T04:38:52.902Z,19.88
2022-08-29T04:41:24.914Z,19.82
2022-08-29T04:43:54.373Z,19.86
2022-08-29T04:46:24.759Z,19.87
2022-08-29T04:48:54.630Z,19.86
2022-08-29T04:51:24.194Z,19.92
2022-08-29T04:53:53.853Z,19.98
2022-08-29T04:56:25.941Z,20.07
2022-08-29T04:58:55.374Z,20.02
2022-08-29T05:01:27.129Z,20.04
2022-08-29T05:03:58.058Z,20.06
2022-08-29T05:06:29.263Z,20.15
2022-08-29T05:08:59.874Z,20.31
2022-08-29T05:11:33.546Z,20.41
2022-08-29T05:14:03.114Z,20.37
2022-08-29T05:16:37.117Z,20.39
2022-08-29T05:19:08.357Z,20.39
2022-08-29T05:21:40.026Z,20.34
2022-08-29T05:24:10.845Z,20.37
2022-08-29T05:26:44.174Z,20.37
2022-08-29T05:29:14.141Z,20.36
2022-08-29T05:31:44.521Z,20.41
2022-08-29T05:34:33.904Z,20.44
2022-08-29T05:37:04.786Z,20.48
2022-08-29T05:39:34.242Z,20.53
2022-08-29T05:42:07.232Z,20.57
2022-08-29T05:44:36.933Z,20.56
2022-08-29T05:47:06.568Z,20.59
2022-08-29T05:49:37.463Z,20.64
2022-08-29T05:52:07.818Z,20.81
2022-08-29T05:54:38.341Z,21.03
2022-08-29T05:57:13.189Z,21.08
2022-08-29T05:59:44.964Z,21.38
2022-08-29T06:02:14.612Z,21.67
2022-08-29T06:04:44.142Z,21.70
2022-08-29T06:07:13.699Z,21.71
2022-08-29T06:09:44.065Z,21.85
2022-08-29T06:12:16.746Z,22.00
2022-08-29T06:14:50.498Z,22.16
2022-08-29T06:17:20.322Z,22.45
2022-08-29T06:19:52.443Z,22.79
2022-08-29T06:22:22.532Z,22.99
2022-08-29T06:24:55.070Z,23.18
2022-08-29T06:27:29.838Z,23.30
2022-08-29T06:30:01.906Z,23.46
2022-08-29T06:32:31.732Z,23.70
2022-08-29T06:35:01.345Z,23.94
2022-08-29T06:37:30.783Z,24.15
2022-08-29T06:40:00.314Z,24.14
2022-08-29T06:42:32.410Z,24.29
2022-08-29T06:45:01.874Z,24.44
2022-08-29T06:47:31.499Z,24.50
2022-08-29T06:50:00.963Z,24.67
2022-08-29T06:52:30.603Z,24.97
2022-08-29T06:55:00.117Z,25.22
2022-08-29T06:57:33.399Z,25.43
2022-08-29T07:00:03.246Z,25.63
2022-08-29T07:02:52.367Z,25.82
2022-08-29T07:05:22.684Z,25.82
2022-08-29T07:07:52.248Z,26.08
2022-08-29T07:10:22.965Z,26.18
2022-08-29T07:12:55.254Z,25.94
2022-08-29T07:15:25.305Z,25.80
2022-08-29T07:17:59.751Z,25.66
2022-08-29T07:20:29.472Z,24.99
2022-08-29T07:22:59.356Z,24.83
2022-08-29T07:25:28.833Z,24.16
2022-08-29T07:28:00.862Z,24.69
2022-08-29T07:30:30.599Z,25.06
2022-08-29T07:33:00.046Z,24.65
2022-08-29T07:35:30.667Z,24.44
2022-08-29T07:38:01.224Z,24.25
2022-08-29T07:40:31.003Z,24.40
2022-08-29T07:43:03.306Z,24.20
2022-08-29T07:45:32.835Z,24.73
2022-08-29T07:48:02.321Z,24.54
2022-08-29T07:50:37.280Z,24.80
2022-08-29T07:53:06.735Z,24.01
2022-08-29T07:55:36.441Z,24.16
2022-08-29T07:58:08.451Z,24.17
2022-08-29T08:00:37.894Z,24.09
2022-08-29T08:03:08.725Z,24.23
2022-08-29T08:05:38.243Z,24.79
2022-08-29T08:08:15.074Z,25.12
2022-08-29T08:10:48.938Z,25.00
2022-08-29T08:13:23.450Z,24.46
2022-08-29T08:15:52.911Z,24.22
2022-08-29T08:18:22.370Z,24.62
2022-08-29T08:20:51.829Z,25.39
2022-08-29T08:23:21.787Z,26.09
2022-08-29T08:25:51.270Z,25.82
2022-08-29T08:28:23.327Z,26.16
2022-08-29T08:30:52.821Z,26.99
2022-08-29T08:33:22.294Z,27.45
2022-08-29T08:35:51.750Z,27.94
2022-08-29T08:38:21.772Z,28.62
2022-08-29T08:40:57.103Z,29.31
2022-08-29T08:43:33.683Z,29.31
2022-08-29T08:46:03.206Z,29.50
2022-08-29T08:48:36.112Z,29.47
2022-08-29T08:51:06.507Z,29.02
2022-08-29T08:53:37.354Z,28.12
2022-08-29T08:56:08.377Z,27.93
2022-08-29T08:58:42.838Z,28.51
2022-08-29T09:01:15.933Z,29.08
2022-08-29T09:04:04.126Z,28.36
2022-08-29T09:06:41.370Z,28.08
2022-08-29T09:09:15.730Z,28.50
2022-08-29T09:11:51.416Z,28.96
2022-08-29T09:14:33.696Z,28.23
2022-08-29T09:17:03.152Z,27.38
2022-08-29T09:19:32.601Z,27.21
2022-08-29T09:22:02.823Z,28.17
2022-08-29T09:24:45.420Z,28.35
2022-08-29T09:27:20.599Z,28.38
2022-08-29T09:29:56.981Z,27.70
2022-08-29T09:32:26.440Z,27.95
2022-08-29T09:35:08.613Z,27.81
2022-08-29T09:37:39.411Z,28.18
2022-08-29T09:40:11.734Z,27.84
2022-08-29T09:42:42.742Z,27.48
2022-08-29T09:45:21.998Z,27.46
2022-08-29T09:47:51.488Z,27.44
2022-08-29T09:50:25.135Z,27.04
2022-08-29T09:52:55.513Z,26.92
2022-08-29T09:55:31.802Z,26.82
2022-08-29T09:58:03.689Z,27.35
2022-08-29T10:00:36.950Z,28.17
2022-08-29T10:03:07.353Z,28.05
2022-08-29T10:05:41.510Z,28.12
2022-08-29T10:08:27.226Z,27.80
2022-08-29T10:10:58.582Z,28.42
2022-08-29T10:13:31.505Z,29.10
2022-08-29T10:16:12.846Z,28.85
2022-08-29T10:18:46.439Z,29.27
2022-08-29T10:21:24.434Z,28.41
2022-08-29T10:24:03.543Z,28.75
2022-08-29T10:26:37.857Z,28.94
2022-08-29T10:29:12.491Z,28.18
2022-08-29T10:31:46.558Z,27.62
2022-08-29T10:34:30.599Z,28.06
2022-08-29T10:37:02.141Z,28.16
2022-08-29T10:39:36.909Z,28.86
2022-08-29T10:42:09.764Z,29.34
2022-08-29T10:44:46.237Z,29.06
2022-08-29T10:47:25.365Z,28.99
2022-08-29T10:50:34.077Z,29.22
2022-08-29T10:53:09.929Z,29.00
2022-08-29T10:55:50.932Z,29.04
2022-08-29T10:58:26.760Z,29.19
2022-08-29T11:00:58.394Z,29.23
2022-08-29T11:03:36.095Z,29.30
2022-08-29T11:06:08.761Z,28.48
2022-08-29T11:08:40.227Z,29.03
2022-08-29T11:11:10.001Z,29.75
2022-08-29T11:13:41.128Z,30.41
2022-08-29T11:16:14.003Z,30.57
2022-08-29T11:18:47.768Z,29.42
2022-08-29T11:21:22.268Z,28.91
2022-08-29T11:23:51.763Z,29.15
2022-08-29T11:26:32.460Z,29.43
2022-08-29T11:29:04.905Z,29.25
2022-08-29T11:31:41.829Z,29.03
2022-08-29T11:34:24.283Z,29.43
2022-08-29T11:37:02.484Z,30.06
2022-08-29T11:39:53.489Z,30.57
2022-08-29T11:42:53.541Z,30.09
2022-08-29T11:45:35.372Z,29.25
2022-08-29T11:48:20.632Z,29.28
2022-08-29T11:50:52.738Z,29.68
2022-08-29T11:53:33.953Z,29.72
2022-08-29T11:56:27.881Z,29.79
2022-08-29T11:58:57.974Z,30.21
2022-08-29T12:01:57.577Z,29.74
2022-08-29T12:04:55.496Z,29.69
2022-08-29T12:07:36.227Z,30.42
2022-08-29T12:10:06.525Z,30.52
2022-08-29T12:12:40.612Z,30.63
2022-08-29T12:15:48.969Z,31.12
2022-08-29T12:18:46.212Z,30.94
2022-08-29T12:21:37.338Z,30.02
2022-08-29T12:24:09.942Z,29.67
2022-08-29T12:26:44.953Z,29.63
2022-08-29T12:29:22.105Z,30.20
2022-08-29T12:32:22.150Z,30.23
2022-08-29T12:35:11.907Z,30.11
2022-08-29T12:37:53.864Z,29.98
2022-08-29T12:40:44.354Z,29.85
2022-08-29T12:43:23.694Z,29.16
2022-08-29T12:45:53.258Z,29.50
2022-08-29T12:48:27.537Z,29.69
2022-08-29T12:50:57.017Z,29.96
2022-08-29T12:53:27.838Z,30.69
2022-08-29T12:56:01.155Z,31.39
2022-08-29T12:58:39.354Z,30.85
2022-08-29T13:01:10.915Z,30.45
2022-08-29T13:03:40.416Z,30.58
2022-08-29T13:06:12.384Z,30.48
2022-08-29T13:08:42.087Z,30.07
2022-08-29T13:11:14.374Z,29.77
2022-08-29T13:13:43.862Z,30.12
2022-08-29T13:16:25.822Z,29.56
2022-08-29T13:19:09.952Z,29.97
2022-08-29T13:21:40.193Z,29.82
2022-08-29T13:24:13.653Z,29.58
2022-08-29T13:27:01.128Z,29.87
2022-08-29T13:29:37.186Z,29.68
2022-08-29T13:32:23.905Z,29.16
2022-08-29T13:35:08.123Z,29.16
2022-08-29T13:37:38.873Z,29.35
2022-08-29T13:40:33.334Z,29.28
2022-08-29T13:43:05.662Z,29.10
2022-08-29T13:45:35.136Z,29.38
2022-08-29T13:48:23.390Z,29.61
2022-08-29T13:50:52.849Z,29.52
2022-08-29T13:53:22.449Z,29.23
2022-08-29T13:55:51.918Z,29.12
2022-08-29T13:58:26.811Z,29.16
2022-08-29T14:00:56.391Z,29.58
2022-08-29T14:03:26.364Z,28.87
2022-08-29T14:05:56.599Z,29.22
2022-08-29T14:08:26.293Z,29.20
2022-08-29T14:10:55.754Z,29.63
2022-08-29T14:13:28.089Z,29.44
2022-08-29T14:15:57.615Z,29.53
2022-08-29T14:18:27.140Z,30.07
2022-08-29T14:21:00.315Z,30.36
2022-08-29T14:23:29.937Z,30.53
2022-08-29T14:25:59.418Z,30.46
2022-08-29T14:28:31.575Z,31.12
2022-08-29T14:31:01.157Z,30.45
2022-08-29T14:33:30.782Z,30.14
2022-08-29T14:36:00.468Z,30.02
2022-08-29T14:38:30.612Z,29.89
2022-08-29T14:41:00.076Z,30.31
2022-08-29T14:43:35.232Z,29.95
2022-08-29T14:46:07.313Z,30.11
2022-08-29T14:48:36.874Z,29.47
2022-08-29T14:51:06.482Z,29.28
2022-08-29T14:53:47.054Z,29.02
2022-08-29T14:56:44.723Z,29.12
2022-08-29T14:59:16.739Z,29.11
2022-08-29T15:01:51.271Z,29.24
2022-08-29T15:04:35.014Z,29.31
2022-08-29T15:07:06.105Z,29.87
2022-08-29T15:09:35.692Z,29.61
2022-08-29T15:12:05.776Z,29.58
2022-08-29T15:14:37.919Z,29.68
2022-08-29T15:17:08.018Z,29.72
2022-08-29T15:20:31.185Z,29.70
2022-08-29T15:22:27.700Z,29.90
2022-08-29T15:24:57.387Z,29.96
2022-08-29T15:27:27.843Z,29.12
2022-08-29T15:29:59.970Z,29.11
2022-08-29T15:32:29.602Z,29.34
2022-08-29T15:34:59.331Z,29.31
2022-08-29T15:37:29.081Z,29.42
2022-08-29T15:39:58.807Z,29.93
2022-08-29T15:42:30.431Z,30.14
2022-08-29T15:45:07.453Z,30.21
2022-08-29T15:47:37.678Z,30.49
2022-08-29T15:50:08.642Z,30.74
2022-08-29T15:52:38.304Z,30.45
2022-08-29T15:55:08.854Z,29.48
2022-08-29T15:57:42.385Z,28.67
2022-08-29T16:00:30.627Z,28.31
2022-08-29T16:03:02.853Z,28.42
2022-08-29T16:05:32.734Z,28.98
2022-08-29T16:08:02.302Z,28.80
2022-08-29T16:10:31.800Z,28.64
2022-08-29T16:13:01.475Z,28.23
2022-08-29T16:15:35.015Z,28.38
2022-08-29T16:18:04.936Z,28.02
2022-08-29T16:20:34.662Z,28.18
2022-08-29T16:23:04.332Z,28.16
2022-08-29T16:25:34.002Z,28.58
2022-08-29T16:28:06.027Z,29.08
2022-08-29T16:30:44.225Z,28.32
2022-08-29T16:33:15.417Z,28.26
2022-08-29T16:35:44.856Z,28.25
2022-08-29T16:38:14.549Z,28.78
2022-08-29T16:40:44.260Z,29.03
2022-08-29T16:43:13.820Z,28.96
2022-08-29T16:45:45.942Z,29.11
2022-08-29T16:48:17.866Z,29.16
2022-08-29T16:50:47.762Z,29.27
2022-08-29T16:53:17.236Z,29.19
2022-08-29T16:55:46.808Z,29.29
2022-08-29T16:58:28.785Z,29.32
2022-08-29T17:01:01.012Z,29.38
2022-08-29T17:03:30.668Z,29.52
2022-08-29T17:06:00.169Z,29.53
2022-08-29T17:08:26.912Z,29.57
2022-08-29T17:10:53.611Z,29.55
2022-08-29T17:13:20.348Z,29.44
2022-08-29T17:15:47.072Z,29.49
2022-08-29T17:18:19.233Z,29.42
2022-08-29T17:20:48.936Z,29.47
2022-08-29T17:23:18.896Z,29.42
2022-08-29T17:25:48.397Z,29.41
2022-08-29T17:28:18.903Z,29.39
2022-08-29T17:30:49.075Z,29.39
2022-08-29T17:33:21.420Z,29.42
2022-08-29T17:35:51.299Z,29.44
2022-08-29T17:38:20.897Z,29.43
2022-08-29T17:40:50.973Z,29.33
2022-08-29T17:43:21.000Z,29.25
2022-08-29T17:45:50.563Z,29.21
2022-08-29T17:48:22.909Z,29.14
2022-08-29T17:50:52.928Z,29.10
2022-08-29T17:53:23.058Z,29.07
2022-08-29T17:55:52.526Z,29.04
2022-08-29T17:58:22.197Z,28.97
2022-08-29T18:00:52.437Z,28.94
2022-08-29T18:03:24.937Z,28.85
2022-08-29T18:05:54.414Z,28.70
2022-08-29T18:08:23.917Z,28.58
2022-08-29T18:10:53.402Z,28.46
2022-08-29T18:13:24.208Z,28.37
2022-08-29T18:15:54.706Z,28.29
2022-08-29T18:18:26.768Z,28.22
2022-08-29T18:20:56.240Z,28.16
2022-08-29T18:23:25.729Z,28.10
2022-08-29T18:25:55.226Z,28.05
2022-08-29T18:28:24.700Z,28.01
2022-08-29T18:30:54.528Z,27.97
2022-08-29T18:33:38.711Z,27.88
2022-08-29T18:36:14.422Z,27.83
2022-08-29T18:38:44.079Z,27.85
2022-08-29T18:41:13.569Z,27.78
2022-08-29T18:43:44.692Z,27.71
2022-08-29T18:46:14.221Z,27.65
2022-08-29T18:48:46.406Z,27.57
2022-08-29T18:51:13.323Z,27.51
2022-08-29T18:53:42.799Z,27.44
2022-08-29T18:56:12.288Z,27.43
2022-08-29T18:58:44.330Z,27.37
2022-08-29T19:01:14.365Z,27.28
2022-08-29T19:03:46.474Z,27.25
2022-08-29T19:06:17.573Z,27.16
2022-08-29T19:08:47.025Z,27.13
2022-08-29T19:11:16.658Z,27.13
2022-08-29T19:13:46.291Z,27.10
2022-08-29T19:16:15.798Z,27.04
2022-08-29T19:18:47.933Z,26.99
2022-08-29T19:21:14.821Z,26.96
2022-08-29T19:23:45.548Z,26.92
2022-08-29T19:26:17.275Z,26.87
2022-08-29T19:28:46.991Z,26.85
2022-08-29T19:31:18.088Z,26.74
2022-08-29T19:33:50.243Z,26.68
2022-08-29T19:36:20.122Z,26.71
2022-08-29T19:38:49.604Z,26.63
2022-08-29T19:41:19.234Z,26.61
2022-08-29T19:43:48.885Z,26.58
2022-08-29T19:46:20.055Z,26.58
2022-08-29T19:48:53.060Z,26.53
2022-08-29T19:51:25.271Z,26.50
2022-08-29T19:53:57.088Z,26.50
2022-08-29T19:56:28.519Z,26.41
2022-08-29T19:58:58.391Z,26.34
2022-08-29T20:01:28.309Z,26.35
2022-08-29T20:04:00.399Z,26.31
2022-08-29T20:06:29.837Z,26.26
2022-08-29T20:08:59.450Z,26.17
2022-08-29T20:11:29.345Z,26.08
2022-08-29T20:13:59.475Z,25.98
2022-08-29T20:16:30.167Z,26.02
2022-08-29T20:19:05.484Z,26.01
2022-08-29T20:21:35.942Z,26.01
2022-08-29T20:24:06.401Z,25.97
2022-08-29T20:26:37.505Z,25.98
2022-08-29T20:29:08.455Z,25.97
2022-08-29T20:31:40.637Z,25.90
2022-08-29T20:34:12.742Z,25.86
2022-08-29T20:36:55.118Z,25.83
2022-08-29T20:39:25.519Z,25.23
2022-08-29T20:41:56.382Z,25.01
2022-08-29T20:44:30.262Z,25.19
2022-08-29T20:47:02.674Z,25.28
2022-08-29T20:49:35.042Z,25.41
2022-08-29T20:52:05.116Z,25.47
2022-08-29T20:54:34.814Z,25.49
2022-08-29T20:57:04.330Z,25.46
2022-08-29T20:59:34.511Z,25.38
2022-08-29T21:02:04.905Z,25.31
2022-08-29T21:04:49.527Z,25.23
2022-08-29T21:07:20.649Z,25.10
2022-08-29T21:09:51.026Z,25.14
2022-08-29T21:12:21.062Z,25.01
2022-08-29T21:14:50.562Z,24.95
2022-08-29T21:17:20.749Z,24.95
2022-08-29T21:19:52.753Z,24.87
2022-08-29T21:22:25.016Z,24.87
2022-08-29T21:24:56.628Z,24.87
2022-08-29T21:27:26.129Z,24.89
2022-08-29T21:29:57.860Z,24.79
2022-08-29T21:32:27.442Z,24.78
2022-08-29T21:34:59.445Z,24.83
2022-08-29T21:37:28.890Z,24.83
2022-08-29T21:39:58.851Z,24.81
2022-08-29T21:42:28.382Z,24.81
2022-08-29T21:44:58.030Z,24.80
2022-08-29T21:47:27.470Z,24.71
2022-08-29T21:49:59.696Z,24.72
2022-08-29T21:52:29.146Z,24.69
2022-08-29T21:54:58.695Z,24.69
2022-08-29T21:57:40.639Z,24.64
2022-08-29T22:00:11.533Z,24.59
2022-08-29T22:02:41.981Z,24.53
2022-08-29T22:05:14.093Z,24.54
2022-08-29T22:07:43.537Z,24.45
2022-08-29T22:10:18.513Z,24.28
2022-08-29T22:12:48.045Z,24.18
2022-08-29T22:15:30.092Z,24.15
2022-08-29T22:17:59.549Z,24.10
2022-08-29T22:20:31.655Z,24.15
2022-08-29T22:23:01.099Z,24.04
2022-08-29T22:25:30.796Z,23.96
2022-08-29T22:28:00.277Z,23.98
2022-08-29T22:30:32.267Z,24.00
2022-08-29T22:33:02.057Z,23.98
2022-08-29T22:35:34.149Z,23.94
2022-08-29T22:38:03.578Z,23.91
2022-08-29T22:40:33.066Z,23.88
2022-08-29T22:43:02.543Z,23.89
2022-08-29T22:45:32.324Z,23.88
2022-08-29T22:48:01.797Z,23.85
2022-08-29T22:50:33.811Z,23.81
2022-08-29T22:53:03.802Z,23.82
2022-08-29T22:55:33.283Z,23.77
2022-08-29T22:58:04.564Z,23.76
2022-08-29T23:00:34.012Z,23.68
2022-08-29T23:03:03.761Z,23.64
2022-08-29T23:05:35.964Z,23.59
2022-08-29T23:08:05.912Z,23.59
2022-08-29T23:10:35.605Z,23.50
2022-08-29T23:13:05.053Z,23.52
2022-08-29T23:15:34.597Z,23.54
2022-08-29T23:18:05.156Z,23.51
2022-08-29T23:20:37.182Z,23.48
2022-08-29T23:23:08.547Z,23.40
2022-08-29T23:25:38.151Z,23.45
2022-08-29T23:28:07.619Z,23.43
2022-08-29T23:30:37.057Z,23.41
2022-08-29T23:33:06.887Z,23.35
2022-08-29T23:35:41.051Z,23.35
2022-08-29T23:38:10.542Z,23.32
2022-08-29T23:40:40.280Z,23.27
2022-08-29T23:43:09.810Z,23.26
2022-08-29T23:45:39.638Z,23.21
2022-08-29T23:48:09.664Z,23.15
2022-08-29T23:50:41.714Z,23.11
2022-08-29T23:53:15.002Z,23.07
2022-08-29T23:55:44.624Z,23.03
2022-08-29T23:58:14.083Z,22.97
